TimeCDT,TemperatureF,Dew PointF,Humidity,Sea Level PressureIn,VisibilityMPH,Wind Direction,Wind SpeedMPH,Gust SpeedMPH,PrecipitationIn,Events,Conditions,WindDirDegrees,DateUTC
12:53 AM,69.1,60.1,73,29.85,10.0,SE,9.2,-,N/A,,Clear,140,2013-09-27 05:53:00
1:53 AM,68.0,60.1,76,29.85,10.0,SE,10.4,-,N/A,,Clear,140,2013-09-27 06:53:00
2:53 AM,66.0,59.0,78,29.87,10.0,SSE,6.9,-,N/A,,Clear,150,2013-09-27 07:53:00
3:53 AM,66.0,59.0,78,29.86,10.0,SE,12.7,-,N/A,,Clear,140,2013-09-27 08:53:00
4:53 AM,64.9,59.0,81,29.88,10.0,SE,10.4,-,N/A,,Clear,140,2013-09-27 09:53:00
5:53 AM,64.0,57.9,80,29.89,10.0,SE,12.7,-,N/A,,Clear,140,2013-09-27 10:53:00
6:53 AM,64.0,57.9,80,29.90,10.0,SSE,11.5,-,N/A,,Clear,150,2013-09-27 11:53:00
7:53 AM,64.0,59.0,84,29.91,10.0,SSE,11.5,-,N/A,,Clear,150,2013-09-27 12:53:00
8:53 AM,68.0,60.1,76,29.91,10.0,SSE,16.1,23.0,N/A,,Clear,160,2013-09-27 13:53:00
10:53 AM,77.0,62.1,60,29.94,-9999.0,South,15.0,24.2,N/A,,Unknown,170,2013-09-27 15:53:00
11:53 AM,80.1,61.0,52,29.93,10.0,South,17.3,26.5,N/A,,Clear,180,2013-09-27 16:53:00
12:53 PM,82.9,61.0,47,29.91,10.0,South,23.0,28.8,N/A,,Clear,170,2013-09-27 17:53:00
1:53 PM,84.0,59.0,43,29.89,10.0,South,21.9,31.1,N/A,,Clear,170,2013-09-27 18:53:00
2:53 PM,84.9,60.1,43,29.86,10.0,SSE,19.6,25.3,N/A,,Clear,160,2013-09-27 19:53:00
3:53 PM,84.0,57.9,41,29.85,10.0,South,23.0,33.4,N/A,,Clear,170,2013-09-27 20:53:00
4:53 PM,82.9,57.0,41,29.85,10.0,South,26.5,31.1,N/A,,Clear,170,2013-09-27 21:53:00
5:53 PM,82.0,57.9,44,29.85,10.0,SSE,17.3,24.2,N/A,,Clear,160,2013-09-27 22:53:00
6:53 PM,79.0,57.9,48,29.85,10.0,SSE,13.8,-,N/A,,Clear,160,2013-09-27 23:53:00
7:53 PM,75.0,57.9,55,29.84,10.0,SSE,11.5,-,N/A,,Clear,150,2013-09-28 00:53:00
8:53 PM,73.0,57.9,59,29.84,10.0,SE,11.5,-,N/A,,Clear,140,2013-09-28 01:53:00
9:53 PM,73.9,59.0,59,29.85,10.0,SSE,16.1,-,N/A,,Clear,150,2013-09-28 02:53:00
10:53 PM,73.0,59.0,61,29.81,10.0,SE,17.3,25.3,N/A,,Clear,140,2013-09-28 03:53:00
11:53 PM,72.0,59.0,64,29.82,10.0,SSE,13.8,-,N/A,,Clear,150,2013-09-28 04:53:00